Time;durP1;ratioP1;P1;durP2;ratioP2;P2;SDS_P1;SDS_P2;PMS_P1;PMS_P2;Temp;Humidity;BMP_temperature;BMP_pressure;BME280_temperature;BME280_humidity;BME280_pressure;Samples;Min_cycle;Max_cycle;Signal;HPM_P1;HPM_P2
2022/04/14 00:01:25;;;;;;;3.25;2.15;;;13.60;62.90;;;;;;4915200;29;20044;-84
2022/04/14 00:03:50;;;;;;;5.25;2.70;;;13.70;63.00;;;;;;4895026;29;20045;-84
2022/04/14 00:06:16;;;;;;;3.92;3.00;;;13.60;62.90;;;;;;4906792;29;20042;-83
2022/04/14 00:08:42;;;;;;;5.10;2.67;;;13.60;63.00;;;;;;4910304;29;20472;-84
2022/04/14 00:11:07;;;;;;;5.30;3.15;;;13.50;63.00;;;;;;4917271;29;20047;-84
2022/04/14 00:13:34;;;;;;;4.00;2.70;;;13.60;63.10;;;;;;4917144;29;20051;-84
2022/04/14 00:15:59;;;;;;;4.50;3.15;;;13.50;63.10;;;;;;4899282;29;20079;-84
2022/04/14 00:18:25;;;;;;;4.78;2.67;;;13.50;63.20;;;;;;4916032;29;20082;-84
2022/04/14 00:20:51;;;;;;;6.40;3.83;;;13.50;63.20;;;;;;4917426;29;20059;-84
2022/04/14 00:23:16;;;;;;;4.25;2.72;;;13.50;63.40;;;;;;4917063;29;20044;-84
2022/04/14 00:25:42;;;;;;;6.93;3.60;;;13.50;63.40;;;;;;4911830;29;20428;-84
2022/04/14 00:28:07;;;;;;;5.50;3.75;;;13.40;63.40;;;;;;4916874;29;20040;-84
2022/04/14 00:30:33;;;;;;;7.50;5.20;;;13.40;63.40;;;;;;4916523;29;20052;-84
2022/04/14 00:32:59;;;;;;;6.63;4.38;;;13.40;63.50;;;;;;4917495;29;20445;-84
2022/04/14 00:35:24;;;;;;;4.65;3.30;;;13.40;63.60;;;;;;4914642;29;20123;-84
2022/04/14 00:37:50;;;;;;;5.03;3.30;;;13.40;63.70;;;;;;4917049;29;20176;-83
2022/04/14 00:40:16;;;;;;;6.18;3.80;;;13.30;63.60;;;;;;4917422;29;20399;-84
2022/04/14 00:42:41;;;;;;;6.70;4.45;;;13.30;63.60;;;;;;4916418;29;20395;-84
2022/04/14 00:45:09;;;;;;;5.18;3.70;;;13.30;63.70;;;;;;4917124;29;20056;-84
2022/04/14 00:47:38;;;;;;;5.15;4.05;;;13.30;64.10;;;;;;4913364;29;20052;-84
2022/04/14 00:50:04;;;;;;;4.90;3.80;;;13.30;63.70;;;;;;4917102;29;20055;-84
2022/04/14 00:52:30;;;;;;;6.25;4.45;;;13.20;63.70;;;;;;4915569;29;20118;-84
2022/04/14 00:54:56;;;;;;;6.38;4.30;;;13.20;63.70;;;;;;4916870;29;20036;-84
2022/04/14 00:57:22;;;;;;;5.63;4.60;;;13.20;63.80;;;;;;4914921;29;20485;-83
2022/04/14 00:59:48;;;;;;;6.95;3.88;;;13.20;63.80;;;;;;4916632;29;20048;-83
2022/04/14 01:02:13;;;;;;;8.60;5.22;;;13.20;63.80;;;;;;4913516;29;20048;-84
2022/04/14 01:04:40;;;;;;;7.03;4.53;;;13.20;63.90;;;;;;4920212;29;20491;-84
2022/04/14 01:07:07;;;;;;;6.93;4.50;;;13.10;63.90;;;;;;4919740;29;20608;-84
2022/04/14 01:09:34;;;;;;;6.65;4.10;;;13.10;63.90;;;;;;4918656;29;20096;-84
2022/04/14 01:12:00;;;;;;;6.13;4.82;;;13.10;63.90;;;;;;4920739;29;20048;-83
2022/04/14 01:14:31;;;;;;;5.38;4.38;;;13.10;63.90;;;;;;4918734;29;20048;-84
2022/04/14 01:16:59;;;;;;;8.15;5.82;;;13.00;63.90;;;;;;4919683;29;20157;-84
2022/04/14 01:19:26;;;;;;;6.43;4.72;;;13.00;63.90;;;;;;4899278;29;20485;-84
2022/04/14 01:22:12;;;;;;;7.85;5.18;;;13.10;63.90;;;;;;4918616;29;20056;-84
2022/04/14 01:24:39;;;;;;;7.47;5.30;;;13.00;63.80;;;;;;4919399;29;20048;-84
2022/04/14 01:27:05;;;;;;;6.25;4.97;;;13.00;63.80;;;;;;4919819;29;20484;-83
2022/04/14 01:29:31;;;;;;;6.50;5.03;;;13.00;63.80;;;;;;4902423;29;20054;-84
2022/04/14 01:31:58;;;;;;;7.32;5.15;;;13.00;63.80;;;;;;4919639;29;20502;-84
2022/04/14 01:34:24;;;;;;;9.70;5.70;;;13.00;63.90;;;;;;4919876;29;20123;-85
2022/04/14 01:36:50;;;;;;;7.32;5.95;;;12.90;63.80;;;;;;4919684;29;20126;-84
2022/04/14 01:39:16;;;;;;;8.05;5.78;;;12.90;63.90;;;;;;4919826;29;20036;-84
2022/04/14 01:41:43;;;;;;;8.27;6.07;;;12.90;64.00;;;;;;4905741;29;20045;-84
2022/04/14 01:44:10;;;;;;;11.13;7.40;;;12.80;64.00;;;;;;4918821;29;20040;-84
2022/04/14 01:46:37;;;;;;;8.40;6.05;;;12.80;64.10;;;;;;4902005;29;20041;-84
2022/04/14 01:49:03;;;;;;;8.65;6.55;;;12.80;64.10;;;;;;4914039;29;20131;-84
2022/04/14 01:51:30;;;;;;;8.43;7.35;;;12.80;64.20;;;;;;4919884;29;20052;-83
2022/04/14 01:53:56;;;;;;;8.93;7.50;;;12.80;64.30;;;;;;4919332;29;20091;-84
2022/04/14 01:56:21;;;;;;;10.98;7.50;;;12.80;64.30;;;;;;4903056;29;20428;-84
2022/04/14 01:58:48;;;;;;;9.55;6.40;;;12.70;64.30;;;;;;4912159;29;20045;-84
2022/04/14 02:01:14;;;;;;;7.05;6.28;;;12.70;64.30;;;;;;4919527;29;20044;-84
2022/04/14 02:03:39;;;;;;;7.55;6.68;;;12.70;64.30;;;;;;4916297;29;20496;-84
2022/04/14 02:06:05;;;;;;;8.02;6.90;;;12.60;64.20;;;;;;4919472;29;20048;-84
2022/04/14 02:08:31;;;;;;;9.50;7.05;;;12.60;64.20;;;;;;4907461;29;20052;-84
2022/04/14 02:10:56;;;;;;;9.50;6.78;;;12.70;64.30;;;;;;4919627;29;20044;-84
2022/04/14 02:13:22;;;;;;;9.63;7.45;;;12.60;64.30;;;;;;4900776;29;20051;-84
2022/04/14 02:15:48;;;;;;;10.38;7.68;;;12.60;64.30;;;;;;4917365;29;20396;-82
2022/04/14 02:18:13;;;;;;;9.82;7.32;;;12.50;64.30;;;;;;4917677;29;20135;-84
2022/04/14 02:20:39;;;;;;;8.75;6.97;;;12.50;64.40;;;;;;4916989;29;20048;-84
2022/04/14 02:23:05;;;;;;;7.93;6.97;;;12.50;64.40;;;;;;4919240;29;20484;-84
2022/04/14 02:25:30;;;;;;;9.55;6.60;;;12.50;64.40;;;;;;4916466;29;20036;-84
2022/04/14 02:27:56;;;;;;;9.32;7.65;;;12.50;64.40;;;;;;4902384;29;20048;-84
2022/04/14 02:30:22;;;;;;;7.97;6.38;;;12.40;64.40;;;;;;4917400;29;20063;-84
2022/04/14 02:32:47;;;;;;;8.00;7.18;;;12.40;64.50;;;;;;4917597;29;20408;-84
2022/04/14 02:35:14;;;;;;;9.15;7.18;;;12.40;64.50;;;;;;4888695;29;20068;-83
2022/04/14 02:37:40;;;;;;;9.43;7.68;;;12.40;64.60;;;;;;4918174;29;20480;-84
2022/04/14 02:40:06;;;;;;;9.88;8.70;;;12.40;64.60;;;;;;4901510;29;20055;-84
2022/04/14 02:42:32;;;;;;;10.00;8.88;;;12.30;64.70;;;;;;4918909;29;20388;-84
2022/04/14 02:44:58;;;;;;;9.32;7.88;;;12.30;64.80;;;;;;4918997;29;20052;-84
2022/04/14 02:47:23;;;;;;;11.60;8.93;;;12.30;64.80;;;;;;4916548;29;20036;-84
2022/04/14 02:49:49;;;;;;;11.70;9.00;;;12.30;64.90;;;;;;4917830;29;20066;-83
2022/04/14 02:52:14;;;;;;;9.98;8.23;;;12.20;64.90;;;;;;4917844;29;20048;-84
2022/04/14 02:54:40;;;;;;;11.45;7.95;;;12.20;64.90;;;;;;4917264;29;20119;-83
2022/04/14 02:57:06;;;;;;;9.77;8.68;;;12.40;65.10;;;;;;4916601;29;20500;-84
2022/04/14 02:59:32;;;;;;;9.95;8.60;;;12.20;65.10;;;;;;4918620;29;20099;-84
2022/04/14 03:01:58;;;;;;;10.23;7.82;;;12.20;65.10;;;;;;4898943;29;20417;-84
2022/04/14 03:04:24;;;;;;;11.80;8.98;;;12.30;65.20;;;;;;4904048;29;20040;-84
2022/04/14 03:06:51;;;;;;;12.45;9.30;;;12.10;65.20;;;;;;4918208;29;20048;-83
2022/04/14 03:09:16;;;;;;;13.07;10.75;;;12.10;65.20;;;;;;4915587;29;20048;-84
2022/04/14 03:11:42;;;;;;;12.50;10.07;;;12.10;65.30;;;;;;4898714;29;20548;-84
2022/04/14 03:14:08;;;;;;;14.70;10.05;;;12.10;65.40;;;;;;4918360;29;20532;-84
2022/04/14 03:16:33;;;;;;;12.88;9.63;;;12.10;65.40;;;;;;4918018;29;20044;-84
2022/04/14 03:18:59;;;;;;;12.52;10.00;;;12.10;65.40;;;;;;4912895;29;20066;-83
2022/04/14 03:21:24;;;;;;;12.55;9.73;;;12.10;65.40;;;;;;4915877;29;20143;-84
2022/04/14 03:23:50;;;;;;;10.60;9.50;;;12.00;65.40;;;;;;4899291;29;20049;-84
2022/04/14 03:26:16;;;;;;;12.18;10.45;;;12.00;65.30;;;;;;4897340;29;20047;-84
2022/04/14 03:28:42;;;;;;;11.32;9.02;;;11.90;65.30;;;;;;4897819;29;20057;-84
2022/04/14 03:31:08;;;;;;;13.57;10.65;;;12.00;65.40;;;;;;4914642;29;20087;-82
2022/04/14 03:33:33;;;;;;;10.77;9.02;;;11.90;65.40;;;;;;4918475;29;20429;-84
2022/04/14 03:35:59;;;;;;;11.75;9.38;;;11.90;65.40;;;;;;4917944;29;20148;-83
2022/04/14 03:38:25;;;;;;;12.25;9.30;;;11.90;65.30;;;;;;4916670;29;20095;-83
2022/04/14 03:40:51;;;;;;;15.88;9.88;;;11.90;65.30;;;;;;4917172;29;20059;-83
2022/04/14 03:43:16;;;;;;;14.55;10.32;;;11.90;65.30;;;;;;4917613;29;20028;-84
2022/04/14 03:45:42;;;;;;;11.80;9.60;;;12.00;65.40;;;;;;4917020;29;20052;-83
2022/04/14 03:48:08;;;;;;;12.20;9.98;;;11.80;65.30;;;;;;4917553;29;20127;-84
2022/04/14 03:50:34;;;;;;;12.55;10.68;;;11.80;65.30;;;;;;4915843;29;20048;-83
2022/04/14 03:53:00;;;;;;;13.00;10.55;;;11.80;65.30;;;;;;4916364;29;20091;-84
2022/04/14 03:55:25;;;;;;;11.35;10.15;;;11.80;65.30;;;;;;4917627;29;20044;-83
2022/04/14 03:57:51;;;;;;;12.35;9.77;;;11.80;65.30;;;;;;4917042;29;20052;-84
2022/04/14 04:00:17;;;;;;;13.02;10.10;;;11.80;65.30;;;;;;4917060;29;20115;-83
2022/04/14 04:02:42;;;;;;;14.63;11.68;;;11.70;65.70;;;;;;4915483;29;20060;-83
2022/04/14 04:05:08;;;;;;;12.68;10.45;;;11.70;65.30;;;;;;4916959;29;20051;-83
2022/04/14 04:07:34;;;;;;;12.25;10.45;;;11.70;65.40;;;;;;4917516;29;20551;-84
2022/04/14 04:10:00;;;;;;;13.80;11.48;;;11.70;65.50;;;;;;4915993;29;20199;-83
2022/04/14 04:12:26;;;;;;;12.07;10.45;;;11.60;65.50;;;;;;4917084;29;20127;-84
2022/04/14 04:14:51;;;;;;;13.63;10.40;;;11.60;65.50;;;;;;4915215;29;20060;-84
2022/04/14 04:17:17;;;;;;;12.57;10.20;;;11.60;65.50;;;;;;4914767;29;20135;-83
2022/04/14 04:19:43;;;;;;;12.65;11.35;;;11.60;65.50;;;;;;4917483;29;20071;-84
2022/04/14 04:22:10;;;;;;;11.40;10.20;;;11.60;65.60;;;;;;4916913;29;20036;-83
2022/04/14 04:24:36;;;;;;;10.93;9.80;;;11.60;65.60;;;;;;4898779;29;20071;-82
2022/04/14 04:27:02;;;;;;;11.32;10.13;;;11.50;65.50;;;;;;4916697;29;20559;-83
2022/04/14 04:29:27;;;;;;;12.45;10.57;;;11.50;65.50;;;;;;4917256;29;20432;-82
2022/04/14 04:31:53;;;;;;;13.05;10.55;;;11.50;65.50;;;;;;4916779;29;20052;-83
2022/04/14 04:34:19;;;;;;;12.80;10.30;;;11.40;65.50;;;;;;4917442;29;20059;-84
2022/04/14 04:36:44;;;;;;;11.40;10.20;;;11.40;65.50;;;;;;4914288;29;20040;-83
2022/04/14 04:39:10;;;;;;;13.18;10.15;;;11.40;65.60;;;;;;4916980;29;20040;-84
2022/04/14 04:41:35;;;;;;;11.95;10.25;;;11.40;65.60;;;;;;4911378;29;20049;-83
2022/04/14 04:44:01;;;;;;;11.30;10.10;;;11.40;65.60;;;;;;4913509;29;20048;-83
2022/04/14 04:46:27;;;;;;;12.15;9.40;;;11.30;65.60;;;;;;4915003;29;20127;-83
2022/04/14 04:48:52;;;;;;;13.18;9.95;;;11.40;65.70;;;;;;4900446;29;20472;-83
2022/04/14 04:51:18;;;;;;;10.25;9.23;;;11.30;65.60;;;;;;4916834;29;20131;-83
2022/04/14 04:53:44;;;;;;;12.50;10.18;;;11.30;65.70;;;;;;4915563;29;20072;-83
2022/04/14 04:56:10;;;;;;;11.40;10.20;;;11.30;65.70;;;;;;4916829;29;20068;-84
2022/04/14 04:58:35;;;;;;;12.45;10.68;;;11.20;65.70;;;;;;4906765;29;20048;-85
2022/04/14 05:01:02;;;;;;;13.00;10.32;;;11.20;65.70;;;;;;4900564;29;20448;-84
2022/04/14 05:03:27;;;;;;;13.63;10.70;;;11.20;65.80;;;;;;4893466;29;20044;-85
2022/04/14 05:05:53;;;;;;;12.50;11.20;;;11.10;65.80;;;;;;4899991;29;20052;-85
2022/04/14 05:08:19;;;;;;;13.07;10.77;;;11.10;65.90;;;;;;4899592;29;20056;-85
2022/04/14 05:10:44;;;;;;;11.43;9.68;;;11.10;66.00;;;;;;4916188;29;20048;-85
2022/04/14 05:13:10;;;;;;;12.15;9.68;;;11.10;66.00;;;;;;4913894;29;20484;-84
2022/04/14 05:15:36;;;;;;;11.65;9.82;;;11.10;66.00;;;;;;4917179;29;20052;-84
2022/04/14 05:18:02;;;;;;;11.23;9.68;;;11.00;65.90;;;;;;4914434;29;20119;-84
2022/04/14 05:20:28;;;;;;;10.02;8.90;;;11.00;65.90;;;;;;4906031;29;20076;-85
2022/04/14 05:22:53;;;;;;;10.52;9.43;;;11.00;65.80;;;;;;4875583;29;20061;-84
2022/04/14 05:25:19;;;;;;;11.55;9.18;;;11.00;65.90;;;;;;4881592;29;20063;-84
2022/04/14 05:27:45;;;;;;;10.82;8.85;;;10.90;65.90;;;;;;4896282;29;20049;-84
2022/04/14 05:30:14;;;;;;;11.95;10.65;;;10.90;66.00;;;;;;4886240;29;20132;-85
2022/04/14 05:32:40;;;;;;;12.60;11.00;;;11.00;66.20;;;;;;4881156;29;20071;-85
2022/04/14 05:35:07;;;;;;;15.93;11.15;;;11.00;66.60;;;;;;4897246;29;20489;-85
2022/04/14 05:37:33;;;;;;;12.75;10.93;;;10.90;66.80;;;;;;4898174;29;20127;-85
2022/04/14 05:39:59;;;;;;;17.52;13.43;;;11.00;67.10;;;;;;4895652;29;20116;-85
2022/04/14 05:42:25;;;;;;;16.55;13.55;;;11.00;67.40;;;;;;4896575;29;20081;-86
2022/04/14 05:44:51;;;;;;;17.17;13.73;;;11.10;67.80;;;;;;4880395;29;20067;-85
2022/04/14 05:47:17;;;;;;;17.40;15.35;;;11.20;68.10;;;;;;4897088;29;20057;-85
2022/04/14 05:49:42;;;;;;;20.65;15.02;;;11.30;68.50;;;;;;4900040;29;20107;-86
2022/04/14 05:52:08;;;;;;;19.45;15.35;;;11.40;68.80;;;;;;4887050;29;20052;-85
2022/04/14 05:54:33;;;;;;;16.95;13.98;;;11.50;69.00;;;;;;4891095;29;20041;-86
2022/04/14 05:56:59;;;;;;;15.13;13.52;;;11.70;69.10;;;;;;4901050;29;20044;-86
2022/04/14 05:59:24;;;;;;;19.00;14.50;;;11.90;69.10;;;;;;4899877;29;20048;-86
2022/04/14 06:01:50;;;;;;;17.60;15.32;;;12.10;69.00;;;;;;4900373;29;20036;-86
2022/04/14 06:04:16;;;;;;;18.30;14.65;;;12.40;68.80;;;;;;4893107;29;20044;-86
2022/04/14 06:06:41;;;;;;;18.38;15.43;;;12.60;68.40;;;;;;4895499;29;20131;-87
2022/04/14 06:09:07;;;;;;;21.33;16.65;;;13.00;68.10;;;;;;4874844;29;20040;-87
2022/04/14 06:11:33;;;;;;;23.83;18.33;;;13.30;67.60;;;;;;4900994;29;20049;-88
2022/04/14 06:13:59;;;;;;;23.48;18.38;;;13.80;67.30;;;;;;4896697;29;20520;-87
2022/04/14 06:16:24;;;;;;;22.80;18.88;;;14.10;66.90;;;;;;4899950;29;20104;-87
2022/04/14 06:18:50;;;;;;;26.25;20.10;;;14.50;66.20;;;;;;4900258;29;20073;-85
2022/04/14 06:21:16;;;;;;;24.17;18.10;;;14.90;65.50;;;;;;4914596;29;20412;-86
2022/04/14 06:23:41;;;;;;;22.00;19.17;;;15.30;64.50;;;;;;4912205;29;20059;-87
2022/04/14 06:26:07;;;;;;;21.73;17.77;;;15.70;63.60;;;;;;4919802;29;20052;-87
2022/04/14 06:28:34;;;;;;;21.00;18.48;;;16.10;63.00;;;;;;4919737;29;20064;-87
2022/04/14 06:31:01;;;;;;;21.55;17.65;;;16.40;62.30;;;;;;4919136;29;20052;-87
2022/04/14 06:33:30;;;;;;;21.48;18.02;;;16.80;61.40;;;;;;4902036;29;20129;-87
2022/04/14 06:35:57;;;;;;;20.52;17.58;;;17.20;60.60;;;;;;4907183;29;20048;-87
2022/04/14 06:38:25;;;;;;;23.58;18.33;;;17.50;60.10;;;;;;4918689;29;20052;-87
2022/04/14 06:40:51;;;;;;;21.73;17.38;;;17.80;59.80;;;;;;4918428;29;20043;-87
2022/04/14 06:43:16;;;;;;;22.88;18.65;;;18.20;58.80;;;;;;4905726;29;20036;-87
2022/04/14 06:45:42;;;;;;;21.58;18.77;;;18.50;58.40;;;;;;4919115;29;20478;-87
2022/04/14 06:48:09;;;;;;;20.77;17.65;;;18.80;58.00;;;;;;4919148;29;20044;-88
2022/04/14 06:50:35;;;;;;;22.33;17.95;;;19.20;57.30;;;;;;4918799;29;20040;-88
2022/04/14 06:53:00;;;;;;;22.27;18.05;;;19.30;57.10;;;;;;4917589;29;20408;-87
2022/04/14 06:55:27;;;;;;;19.88;17.55;;;19.60;56.40;;;;;;4913322;29;20079;-87
2022/04/14 06:57:53;;;;;;;20.88;17.55;;;19.90;55.90;;;;;;4918038;29;20137;-87
2022/04/14 07:00:21;;;;;;;20.33;17.83;;;20.10;55.30;;;;;;4901411;29;20536;-85
2022/04/14 07:02:49;;;;;;;21.95;17.80;;;20.40;54.90;;;;;;4902394;29;20056;-84
2022/04/14 07:05:15;;;;;;;22.92;18.25;;;20.70;54.40;;;;;;4915888;29;20044;-85
2022/04/14 07:07:41;;;;;;;19.65;16.67;;;20.90;53.80;;;;;;4900220;29;20055;-85
2022/04/14 07:10:07;;;;;;;19.05;16.00;;;21.10;53.10;;;;;;4905079;29;20052;-84
2022/04/14 07:12:32;;;;;;;18.75;15.57;;;21.30;52.60;;;;;;4914446;29;20099;-84
2022/04/14 07:15:00;;;;;;;18.83;15.27;;;21.40;52.00;;;;;;4905098;29;20044;-83
2022/04/14 07:17:26;;;;;;;18.05;15.05;;;21.60;52.00;;;;;;4902351;29;20048;-84
2022/04/14 07:19:52;;;;;;;18.80;16.05;;;21.80;52.20;;;;;;4918647;29;20060;-83
2022/04/14 07:22:18;;;;;;;18.23;14.43;;;21.90;51.60;;;;;;4905139;29;20049;-84
2022/04/14 07:24:48;;;;;;;16.45;14.75;;;22.10;51.00;;;;;;4899867;29;20036;-85
2022/04/14 07:27:15;;;;;;;16.52;13.70;;;22.20;50.60;;;;;;4903398;29;20168;-85
2022/04/14 07:29:40;;;;;;;18.02;13.20;;;22.40;50.40;;;;;;4882859;29;20053;-85
2022/04/14 07:32:06;;;;;;;14.75;12.00;;;22.50;50.00;;;;;;4912809;29;20058;-84
2022/04/14 07:34:32;;;;;;;14.18;12.75;;;22.70;49.60;;;;;;4918252;29;20393;-85
2022/04/14 07:36:57;;;;;;;19.50;16.15;;;22.80;49.00;;;;;;4913368;29;20052;-85
2022/04/14 07:39:23;;;;;;;16.35;14.02;;;22.90;49.10;;;;;;4898447;29;20064;-85
2022/04/14 07:41:49;;;;;;;16.85;13.43;;;23.00;49.00;;;;;;4910671;29;20128;-85
2022/04/14 07:44:14;;;;;;;19.30;15.52;;;23.10;48.70;;;;;;4903723;29;20047;-85
2022/04/14 07:46:41;;;;;;;17.95;14.57;;;23.20;48.60;;;;;;4917734;29;20448;-84
2022/04/14 07:49:07;;;;;;;16.55;14.00;;;23.30;48.40;;;;;;4900613;29;20128;-84
2022/04/14 07:51:32;;;;;;;17.00;14.23;;;23.40;48.10;;;;;;4907506;29;20479;-83
2022/04/14 07:53:58;;;;;;;14.73;13.20;;;23.60;48.10;;;;;;4916849;29;20044;-85
2022/04/14 07:56:24;;;;;;;16.75;13.80;;;23.70;47.90;;;;;;4900251;29;20095;-83
2022/04/14 07:58:51;;;;;;;14.50;11.80;;;23.80;47.90;;;;;;4909982;29;20065;-86
2022/04/14 08:01:18;;;;;;;15.65;12.85;;;23.80;47.20;;;;;;4903693;29;20040;-86
2022/04/14 08:03:46;;;;;;;13.15;11.10;;;23.90;46.70;;;;;;4913184;29;20056;-85
2022/04/14 08:06:13;;;;;;;16.52;12.90;;;24.00;46.50;;;;;;4903216;29;20044;-86
2022/04/14 08:08:39;;;;;;;18.13;14.63;;;24.10;46.30;;;;;;4917957;29;20051;-86
2022/04/14 08:11:05;;;;;;;17.85;13.52;;;24.20;46.40;;;;;;4916727;29;20053;-83
2022/04/14 08:13:35;;;;;;;14.68;13.18;;;24.40;46.10;;;;;;4916501;29;20063;-84
2022/04/14 08:16:05;;;;;;;12.88;10.93;;;24.50;46.10;;;;;;4916021;29;20523;-84
2022/04/14 08:18:33;;;;;;;14.40;11.77;;;24.60;45.70;;;;;;4917660;29;20052;-84
2022/04/14 08:20:59;;;;;;;14.60;12.63;;;24.70;45.40;;;;;;4917213;29;20139;-84
2022/04/14 08:23:25;;;;;;;13.25;11.30;;;24.70;45.10;;;;;;4915956;29;20079;-84
2022/04/14 08:25:50;;;;;;;14.00;11.27;;;24.80;44.70;;;;;;4906562;29;20087;-84
2022/04/14 08:28:16;;;;;;;12.43;10.52;;;24.90;44.80;;;;;;4900137;29;20044;-84
2022/04/14 08:30:42;;;;;;;12.57;11.25;;;24.90;44.60;;;;;;4900341;29;20520;-84
2022/04/14 08:33:10;;;;;;;12.13;10.02;;;25.00;44.30;;;;;;4917496;29;20052;-84
2022/04/14 08:35:36;;;;;;;12.82;10.43;;;25.00;44.30;;;;;;4913372;29;20068;-84
2022/04/14 08:38:06;;;;;;;13.63;11.25;;;25.00;44.40;;;;;;4913832;29;20040;-84
2022/04/14 08:40:35;;;;;;;10.68;9.45;;;25.10;44.40;;;;;;4916342;29;20043;-84
2022/04/14 08:43:04;;;;;;;12.10;10.50;;;25.10;43.80;;;;;;4900401;29;20119;-83
2022/04/14 08:45:31;;;;;;;11.30;10.20;;;25.20;43.60;;;;;;4917378;29;20052;-84
2022/04/14 08:48:00;;;;;;;10.90;9.15;;;25.20;43.30;;;;;;4896377;29;20441;-85
2022/04/14 08:50:26;;;;;;;9.50;8.50;;;25.20;43.30;;;;;;4916132;29;20055;-84
2022/04/14 08:52:52;;;;;;;11.63;10.27;;;25.20;42.90;;;;;;4917241;29;20048;-83
2022/04/14 08:55:18;;;;;;;11.00;9.90;;;25.10;42.10;;;;;;4916412;29;20052;-84
2022/04/14 08:57:44;;;;;;;9.55;8.55;;;25.00;42.20;;;;;;4916083;29;20087;-84
2022/04/14 09:00:12;;;;;;;9.68;8.57;;;24.90;42.50;;;;;;4917338;29;20440;-83
2022/04/14 09:02:39;;;;;;;10.50;9.50;;;24.80;43.00;;;;;;4917110;29;20044;-84
2022/04/14 09:05:07;;;;;;;10.25;9.18;;;24.70;43.10;;;;;;4916065;29;20048;-83
2022/04/14 09:07:33;;;;;;;9.90;8.25;;;24.60;43.10;;;;;;4914589;29;20060;-83
2022/04/14 09:09:58;;;;;;;10.85;9.75;;;24.50;43.40;;;;;;4911622;29;20433;-83
2022/04/14 09:12:25;;;;;;;10.45;9.38;;;24.40;43.50;;;;;;4901988;29;20048;-84
2022/04/14 09:14:50;;;;;;;10.73;9.43;;;24.40;43.90;;;;;;4917035;29;20047;-84
2022/04/14 09:17:16;;;;;;;13.23;10.05;;;24.40;44.20;;;;;;4916618;29;20051;-83
2022/04/14 09:19:42;;;;;;;10.82;9.80;;;24.40;43.90;;;;;;4916927;29;20040;-85
2022/04/14 09:22:13;;;;;;;11.13;8.48;;;24.40;44.00;;;;;;4901243;29;20059;-85
2022/04/14 09:24:47;;;;;;;11.30;9.70;;;24.40;44.10;;;;;;4901962;29;20090;-86
2022/04/14 09:27:27;;;;;;;11.38;9.43;;;24.40;43.50;;;;;;4902835;29;20065;-84
2022/04/14 09:29:55;;;;;;;10.32;9.05;;;24.50;43.80;;;;;;4920923;29;20055;-85
2022/04/14 09:32:30;;;;;;;10.45;9.38;;;24.50;43.90;;;;;;4908871;29;20055;-90
2022/04/14 09:34:56;;;;;;;9.77;8.32;;;24.50;44.10;;;;;;4924123;29;20071;-85
2022/04/14 09:37:23;;;;;;;10.13;8.90;;;24.50;43.70;;;;;;4918735;29;20049;-85
2022/04/14 09:40:03;;;;;;;8.27;7.47;;;24.60;43.70;;;;;;4920465;29;20119;-85
2022/04/14 09:42:33;;;;;;;9.00;7.85;;;24.60;43.60;;;;;;4925003;29;20115;-86
2022/04/14 09:45:21;;;;;;;10.25;8.00;;;24.60;43.60;;;;;;4913657;29;20048;-86
2022/04/14 09:47:48;;;;;;;9.15;8.25;;;24.60;44.00;;;;;;4935766;29;20047;-85
2022/04/14 09:50:25;;;;;;;10.25;8.68;;;24.60;44.20;;;;;;4919166;29;20048;-85
2022/04/14 09:53:05;;;;;;;9.73;8.77;;;24.60;43.30;;;;;;4916395;29;20436;-83
2022/04/14 09:55:35;;;;;;;7.65;6.85;;;24.50;43.10;;;;;;4918392;29;20100;-84
2022/04/14 09:58:08;;;;;;;10.57;7.25;;;24.30;43.00;;;;;;4907163;29;20051;-84
2022/04/14 10:00:41;;;;;;;7.40;6.22;;;24.10;43.00;;;;;;4914302;29;20056;-84
2022/04/14 10:03:08;;;;;;;7.47;6.13;;;23.80;43.80;;;;;;4916475;29;20395;-84
2022/04/14 10:05:35;;;;;;;7.85;5.97;;;23.60;44.00;;;;;;4920889;29;20412;-85
2022/04/14 10:08:01;;;;;;;8.57;7.25;;;23.50;44.50;;;;;;4921471;29;20059;-85
2022/04/14 10:10:27;;;;;;;10.20;7.90;;;23.30;44.50;;;;;;4909019;29;20044;-85
2022/04/14 10:13:03;;;;;;;8.88;7.13;;;23.20;44.90;;;;;;4929096;29;20137;-85
2022/04/14 10:15:30;;;;;;;10.63;7.95;;;23.10;45.30;;;;;;4917145;29;20045;-85
2022/04/14 10:17:57;;;;;;;9.52;6.50;;;23.00;44.80;;;;;;4902738;29;20523;-83
2022/04/14 10:20:25;;;;;;;10.43;7.57;;;22.90;45.70;;;;;;4916891;29;20058;-85
2022/04/14 10:22:51;;;;;;;10.45;7.88;;;22.90;45.80;;;;;;4902744;29;20052;-84
2022/04/14 10:25:17;;;;;;;8.98;7.60;;;22.80;46.20;;;;;;4913007;29;20053;-85
2022/04/14 10:27:44;;;;;;;8.95;6.97;;;22.70;46.20;;;;;;4900666;29;20131;-84
2022/04/14 10:30:10;;;;;;;8.73;7.25;;;22.70;46.70;;;;;;4917107;29;20044;-84
2022/04/14 10:32:36;;;;;;;9.15;6.40;;;22.70;47.00;;;;;;4902805;29;20167;-85
2022/04/14 10:35:05;;;;;;;6.25;4.72;;;22.70;47.20;;;;;;4918390;29;20047;-84
2022/04/14 10:37:36;;;;;;;7.43;5.57;;;22.70;46.20;;;;;;4918055;29;20055;-84
2022/04/14 10:40:02;;;;;;;7.65;4.80;;;22.70;45.40;;;;;;4902540;29;20129;-84
2022/04/14 10:42:29;;;;;;;7.18;6.13;;;22.60;45.30;;;;;;4915198;29;20048;-84
2022/04/14 10:44:56;;;;;;;7.57;5.40;;;22.50;45.50;;;;;;4912789;29;20052;-85
2022/04/14 10:47:34;;;;;;;8.32;5.90;;;22.40;45.80;;;;;;4887228;29;20120;-83
2022/04/14 10:50:01;;;;;;;7.40;6.28;;;22.30;46.50;;;;;;4907766;29;20048;-84
2022/04/14 10:52:27;;;;;;;7.80;6.15;;;22.30;46.20;;;;;;4898674;29;20161;-85
2022/04/14 10:55:00;;;;;;;7.95;6.10;;;22.30;46.40;;;;;;4914812;29;20044;-83
2022/04/14 10:57:40;;;;;;;10.02;6.07;;;22.20;46.70;;;;;;4912496;29;20052;-84
2022/04/14 11:00:20;;;;;;;7.97;4.80;;;22.20;47.50;;;;;;4887822;29;20052;-85
2022/04/14 11:03:11;;;;;;;9.38;6.25;;;22.00;47.40;;;;;;4900093;29;20048;-84
2022/04/14 11:05:47;;;;;;;9.02;6.43;;;22.00;47.10;;;;;;4910501;29;20128;-85
2022/04/14 11:08:29;;;;;;;8.05;6.35;;;21.90;47.50;;;;;;4905509;29;20048;-84
2022/04/14 11:11:09;;;;;;;10.55;6.55;;;21.80;47.10;;;;;;4918208;29;20520;-84
2022/04/14 11:13:50;;;;;;;7.13;5.35;;;21.70;47.40;;;;;;4918612;29;20048;-83
2022/04/14 11:16:38;;;;;;;6.80;4.75;;;21.70;48.00;;;;;;4916016;29;20131;-84
2022/04/14 11:19:22;;;;;;;10.35;5.80;;;21.70;48.10;;;;;;4900512;29;20131;-84
2022/04/14 11:22:08;;;;;;;9.40;5.60;;;21.70;47.50;;;;;;4918566;29;20056;-83
2022/04/14 11:24:37;;;;;;;7.63;5.30;;;21.60;47.20;;;;;;4918186;29;20496;-85
2022/04/14 11:27:17;;;;;;;8.57;4.55;;;21.50;47.20;;;;;;4916545;29;20052;-84
2022/04/14 11:29:48;;;;;;;8.07;4.95;;;21.50;47.50;;;;;;4876442;29;20374;-83
2022/04/14 11:32:15;;;;;;;8.07;4.10;;;21.50;48.00;;;;;;4917201;29;20120;-85
2022/04/14 11:34:42;;;;;;;8.20;5.55;;;21.50;48.60;;;;;;4918152;29;20044;-85
2022/04/14 11:37:45;;;;;;;6.93;4.63;;;21.60;48.20;;;;;;4901008;29;20488;-85
2022/04/14 11:40:21;;;;;;;7.40;4.65;;;21.60;48.40;;;;;;4916731;29;20066;-84
2022/04/14 11:42:51;;;;;;;8.55;5.03;;;21.50;48.40;;;;;;4917098;29;20082;-85
2022/04/14 11:45:24;;;;;;;7.65;4.40;;;21.50;48.50;;;;;;4917680;29;20131;-83
2022/04/14 11:47:52;;;;;;;6.03;4.07;;;21.50;48.90;;;;;;4918095;29;20081;-84
2022/04/14 11:50:26;;;;;;;7.15;4.28;;;21.50;48.30;;;;;;4915875;29;20040;-83
2022/04/14 11:53:00;;;;;;;8.73;4.63;;;21.50;48.20;;;;;;4911885;29;20041;-84
2022/04/14 11:55:39;;;;;;;8.27;4.03;;;21.50;48.60;;;;;;4913060;29;20540;-84
2022/04/14 11:58:12;;;;;;;6.35;4.28;;;21.50;49.20;;;;;;4913126;29;20056;-84
2022/04/14 12:00:56;;;;;;;10.98;5.00;;;21.40;49.50;;;;;;4896345;29;20135;-83
2022/04/14 12:03:32;;;;;;;8.15;4.50;;;21.40;49.30;;;;;;4915549;29;20044;-84
2022/04/14 12:06:04;;;;;;;5.97;3.92;;;21.40;49.20;;;;;;4908334;29;20116;-84
2022/04/14 12:08:30;;;;;;;6.00;4.03;;;21.40;48.80;;;;;;4907244;29;20059;-85
2022/04/14 12:10:55;;;;;;;9.18;5.07;;;21.40;48.10;;;;;;4910591;29;20048;-85
2022/04/14 12:13:23;;;;;;;9.50;5.40;;;21.40;48.30;;;;;;4913724;29;20052;-84
2022/04/14 12:16:03;;;;;;;7.93;5.35;;;21.30;47.90;;;;;;4920288;29;20048;-85
2022/04/14 12:18:29;;;;;;;7.18;4.38;;;21.20;48.20;;;;;;4932971;29;20099;-84
2022/04/14 12:20:56;;;;;;;10.38;4.80;;;21.20;48.50;;;;;;4906843;29;20564;-84
2022/04/14 12:23:22;;;;;;;11.60;6.03;;;21.20;48.60;;;;;;4913678;29;20095;-85
2022/04/14 12:25:48;;;;;;;9.80;5.35;;;21.10;48.60;;;;;;4904807;29;20076;-84
2022/04/14 12:28:14;;;;;;;7.07;4.90;;;21.10;48.90;;;;;;4899531;29;20070;-86
2022/04/14 12:30:43;;;;;;;9.80;5.78;;;21.00;48.80;;;;;;4898962;29;20067;-85
2022/04/14 12:33:09;;;;;;;6.68;3.60;;;21.00;49.40;;;;;;4906528;29;20496;-85
2022/04/14 12:35:36;;;;;;;5.93;3.63;;;21.00;49.60;;;;;;4894266;29;20419;-84
2022/04/14 12:38:24;;;;;;;9.18;4.47;;;21.00;48.70;;;;;;4895966;29;20099;-83
2022/04/14 12:40:56;;;;;;;8.52;4.88;;;21.00;48.20;;;;;;4897849;29;20052;-84